createdAt,value
2023-05-05T00:02:25.974Z,31.00
2023-05-05T00:05:08.500Z,31.00
2023-05-05T00:07:39.603Z,31.00
2023-05-05T00:10:11.196Z,31.00
2023-05-05T00:12:42.444Z,31.00
2023-05-05T00:15:13.596Z,31.10
2023-05-05T00:17:44.704Z,31.10
2023-05-05T00:20:16.184Z,31.10
2023-05-05T00:22:47.301Z,31.20
2023-05-05T00:25:18.648Z,31.20
2023-05-05T00:27:49.816Z,31.20
2023-05-05T00:30:21.266Z,31.20
2023-05-05T00:32:52.922Z,31.20
2023-05-05T00:35:24.110Z,31.30
2023-05-05T00:40:53.369Z,31.30
2023-05-05T00:43:25.038Z,31.40
2023-05-05T00:46:01.239Z,31.40
2023-05-05T00:48:34.264Z,31.50
2023-05-05T00:51:06.719Z,31.40
2023-05-05T00:53:39.858Z,31.50
2023-05-05T00:56:11.357Z,31.60
2023-05-05T00:58:46.332Z,31.60
2023-05-05T01:01:20.519Z,31.60
2023-05-05T01:03:51.734Z,31.70
2023-05-05T01:06:32.041Z,31.70
2023-05-05T01:09:34.181Z,31.80
2023-05-05T01:12:10.644Z,31.90
2023-05-05T01:14:44.569Z,32.00
2023-05-05T01:17:26.910Z,32.00
2023-05-05T01:20:21.807Z,32.00
2023-05-05T01:23:01.810Z,32.10
2023-05-05T01:26:00.660Z,32.20
2023-05-05T01:28:50.461Z,32.30
2023-05-05T01:31:39.152Z,32.40
2023-05-05T01:34:12.152Z,32.40
2023-05-05T01:36:45.708Z,32.50
2023-05-05T01:39:18.821Z,32.60
2023-05-05T01:41:52.504Z,32.60
2023-05-05T01:50:13.926Z,33.00
2023-05-05T01:52:47.407Z,33.00
2023-05-05T01:55:20.989Z,33.10
2023-05-05T01:57:53.256Z,33.20
2023-05-05T02:00:26.303Z,33.30
2023-05-05T02:02:59.165Z,33.40
2023-05-05T02:05:31.872Z,33.40
2023-05-05T02:08:04.952Z,33.60
2023-05-05T02:10:45.043Z,33.70
2023-05-05T02:16:10.648Z,33.90
2023-05-05T02:18:42.623Z,34.00
2023-05-05T02:21:15.800Z,34.10
2023-05-05T02:23:51.951Z,34.20
2023-05-05T02:26:22.957Z,34.30
2023-05-05T02:29:14.325Z,34.40
2023-05-05T02:34:43.682Z,34.60
2023-05-05T02:37:17.584Z,34.70
2023-05-05T02:40:03.077Z,34.80
2023-05-05T02:42:36.657Z,34.80
2023-05-05T02:45:21.000Z,35.00
2023-05-05T02:47:52.272Z,35.10
2023-05-05T02:50:23.856Z,35.10
2023-05-05T02:52:54.977Z,35.10
2023-05-05T02:55:27.150Z,35.20
2023-05-05T02:58:09.552Z,35.30
2023-05-05T03:00:45.721Z,35.40
2023-05-05T03:03:35.174Z,35.50
2023-05-05T03:06:14.600Z,35.60
2023-05-05T03:09:00.352Z,35.80
2023-05-05T03:11:39.675Z,35.80
2023-05-05T03:14:17.534Z,35.90
2023-05-05T03:16:51.503Z,36.00
2023-05-05T03:19:25.781Z,36.00
2023-05-05T03:21:58.001Z,36.10
2023-05-05T03:24:31.393Z,36.10
2023-05-05T03:27:02.853Z,36.10
2023-05-05T03:29:33.958Z,36.10
2023-05-05T03:32:05.606Z,36.20
2023-05-05T03:37:28.990Z,36.20
2023-05-05T03:40:00.140Z,36.30
2023-05-05T03:42:31.573Z,36.40
2023-05-05T03:45:03.170Z,36.60
2023-05-05T03:47:34.602Z,36.60
2023-05-05T03:50:05.841Z,36.70
2023-05-05T03:52:37.045Z,36.80
2023-05-05T03:57:42.837Z,36.90
2023-05-05T04:00:15.311Z,37.00
2023-05-05T04:02:46.736Z,37.00
2023-05-05T04:05:18.362Z,37.10
2023-05-05T04:07:49.450Z,37.10
2023-05-05T04:10:21.125Z,37.20
2023-05-05T04:12:52.563Z,37.20
2023-05-05T04:15:24.281Z,37.20
2023-05-05T04:17:55.693Z,37.20
2023-05-05T04:20:31.514Z,37.30
2023-05-05T04:23:02.234Z,37.30
2023-05-05T04:25:33.413Z,37.30
2023-05-05T04:28:04.643Z,37.40
2023-05-05T04:30:38.822Z,37.40
2023-05-05T04:33:10.246Z,37.50
2023-05-05T04:35:41.767Z,37.40
2023-05-05T04:38:14.142Z,37.40
2023-05-05T04:40:45.290Z,37.50
2023-05-05T04:43:16.710Z,37.50
2023-05-05T04:45:55.401Z,37.60
2023-05-05T04:48:26.886Z,37.70
2023-05-05T04:50:57.989Z,37.70
2023-05-05T04:53:29.328Z,37.80
2023-05-05T04:56:01.888Z,37.80
2023-05-05T04:58:33.724Z,37.90
2023-05-05T05:01:05.253Z,38.00
2023-05-05T05:03:39.332Z,38.00
2023-05-05T05:06:10.635Z,38.00
2023-05-05T05:08:42.039Z,38.00
2023-05-05T05:11:13.338Z,38.10
2023-05-05T05:13:44.816Z,38.10
2023-05-05T05:16:18.803Z,38.00
2023-05-05T05:18:50.027Z,38.00
2023-05-05T05:21:21.079Z,38.00
2023-05-05T05:23:52.365Z,38.00
2023-05-05T05:26:23.822Z,38.00
2023-05-05T05:28:55.074Z,38.10
2023-05-05T05:31:26.216Z,38.20
2023-05-05T05:33:57.465Z,38.40
2023-05-05T05:36:28.587Z,38.50
2023-05-05T05:39:00.599Z,38.50
2023-05-05T05:41:32.405Z,38.50
2023-05-05T05:44:03.968Z,38.50
2023-05-05T05:46:35.178Z,38.60
2023-05-05T05:49:06.691Z,39.60
2023-05-05T05:51:37.928Z,38.50
2023-05-05T05:54:09.014Z,38.70
2023-05-05T05:56:41.203Z,38.70
2023-05-05T05:59:12.293Z,38.70
2023-05-05T06:01:43.658Z,38.70
2023-05-05T06:04:14.837Z,38.60
2023-05-05T06:06:46.094Z,38.60
2023-05-05T06:09:17.547Z,38.60
2023-05-05T06:11:48.694Z,38.70
2023-05-05T06:14:20.275Z,38.70
2023-05-05T06:16:51.790Z,38.80
2023-05-05T06:19:23.140Z,38.80
2023-05-05T06:21:54.693Z,38.80
2023-05-05T06:24:25.844Z,38.80
2023-05-05T06:26:57.395Z,38.70
2023-05-05T06:29:29.205Z,38.70
2023-05-05T06:32:01.789Z,38.70
2023-05-05T06:34:33.351Z,38.80
2023-05-05T06:37:04.516Z,38.70
2023-05-05T06:39:35.655Z,38.70
2023-05-05T06:42:07.426Z,38.60
2023-05-05T06:44:38.936Z,38.60
2023-05-05T06:47:10.116Z,38.60
2023-05-05T06:49:41.307Z,38.70
2023-05-05T06:52:12.580Z,38.70
2023-05-05T06:54:43.795Z,38.80
2023-05-05T06:57:14.895Z,38.80
2023-05-05T06:59:46.170Z,39.00
2023-05-05T07:02:17.677Z,39.00
2023-05-05T07:04:49.739Z,39.00
2023-05-05T07:07:20.820Z,39.00
2023-05-05T07:09:51.929Z,39.10
2023-05-05T07:12:23.316Z,39.00
2023-05-05T07:14:54.568Z,39.00
2023-05-05T07:17:25.926Z,39.10
2023-05-05T07:19:57.467Z,39.10
2023-05-05T07:22:28.795Z,39.10
2023-05-05T07:24:59.914Z,39.10
2023-05-05T07:27:31.402Z,39.10
2023-05-05T07:30:04.045Z,39.00
2023-05-05T07:32:34.956Z,39.00
2023-05-05T07:35:06.983Z,39.00
2023-05-05T07:37:38.439Z,39.10
2023-05-05T07:40:11.121Z,39.10
2023-05-05T07:42:45.856Z,39.10
2023-05-05T07:45:17.099Z,39.10
2023-05-05T07:47:48.767Z,39.10
2023-05-05T07:50:20.206Z,39.10
2023-05-05T07:52:56.414Z,39.10
2023-05-05T07:55:23.939Z,39.10
2023-05-05T07:57:55.133Z,39.00
2023-05-05T08:00:26.388Z,39.00
2023-05-05T08:02:57.939Z,38.90
2023-05-05T08:05:29.152Z,39.00
2023-05-05T08:08:01.065Z,38.90
2023-05-05T08:10:33.012Z,39.00
2023-05-05T08:13:05.719Z,39.00
2023-05-05T08:15:37.953Z,39.00
2023-05-05T08:18:11.041Z,39.10
2023-05-05T08:20:42.727Z,39.10
2023-05-05T08:23:15.239Z,39.00
2023-05-05T08:25:47.077Z,39.00
2023-05-05T08:28:18.517Z,38.90
2023-05-05T08:30:51.068Z,38.90
2023-05-05T08:33:22.614Z,38.90
2023-05-05T08:35:54.690Z,38.90
2023-05-05T08:38:26.074Z,38.90
2023-05-05T08:40:57.538Z,38.80
2023-05-05T08:43:28.719Z,38.80
2023-05-05T08:46:00.675Z,38.70
2023-05-05T08:48:34.419Z,38.70
2023-05-05T08:51:07.541Z,38.60
2023-05-05T08:54:00.344Z,38.60
2023-05-05T08:56:36.282Z,38.50
2023-05-05T08:59:08.378Z,38.40
2023-05-05T09:01:40.207Z,38.40
2023-05-05T09:04:12.319Z,38.30
2023-05-05T09:06:44.245Z,38.30
2023-05-05T09:09:16.422Z,38.30
2023-05-05T09:11:48.613Z,38.30
2023-05-05T09:14:20.341Z,38.30
2023-05-05T09:16:51.859Z,38.30
2023-05-05T09:19:23.465Z,38.30
2023-05-05T09:21:54.582Z,38.30
2023-05-05T09:24:25.691Z,38.30
2023-05-05T09:26:59.009Z,38.30
2023-05-05T09:29:29.683Z,38.30
2023-05-05T09:32:06.354Z,38.30
2023-05-05T09:34:38.637Z,38.30
2023-05-05T09:37:10.116Z,38.20
2023-05-05T09:39:43.577Z,38.20
2023-05-05T09:42:23.621Z,38.20
2023-05-05T09:44:56.058Z,38.10
2023-05-05T09:47:38.301Z,38.10
2023-05-05T09:50:11.270Z,38.00
2023-05-05T09:52:42.908Z,38.00
2023-05-05T09:55:23.279Z,37.90
2023-05-05T09:57:54.681Z,38.00
2023-05-05T10:00:28.341Z,37.90
2023-05-05T10:03:02.371Z,37.90
2023-05-05T10:05:33.668Z,37.90
2023-05-05T10:08:07.102Z,37.90
2023-05-05T10:10:38.721Z,37.90
2023-05-05T10:13:10.056Z,37.80
2023-05-05T10:15:41.931Z,37.80
2023-05-05T10:18:14.742Z,37.70
2023-05-05T10:20:46.985Z,37.70
2023-05-05T10:23:31.867Z,37.70
2023-05-05T10:26:07.804Z,37.70
2023-05-05T10:28:44.563Z,37.60
2023-05-05T10:31:26.578Z,37.60
2023-05-05T10:33:58.744Z,37.60
2023-05-05T10:36:31.781Z,37.60
2023-05-05T10:39:03.780Z,37.60
2023-05-05T10:41:36.349Z,37.60
2023-05-05T10:44:09.123Z,37.60
2023-05-05T10:46:41.100Z,37.60
2023-05-05T10:49:43.338Z,37.50
2023-05-05T10:52:22.981Z,37.50
2023-05-05T10:55:17.295Z,37.50
2023-05-05T10:57:50.568Z,37.40
2023-05-05T11:00:44.961Z,37.40
2023-05-05T11:03:21.680Z,37.40
2023-05-05T11:06:49.778Z,37.30
2023-05-05T11:09:33.269Z,37.30
2023-05-05T11:12:12.956Z,37.40
2023-05-05T11:14:44.239Z,37.30
2023-05-05T11:17:49.143Z,37.20
2023-05-05T11:20:20.504Z,37.20
2023-05-05T11:23:11.194Z,37.20
2023-05-05T11:25:45.164Z,37.20
2023-05-05T11:28:22.871Z,37.10
2023-05-05T11:31:01.825Z,37.20
2023-05-05T11:33:39.854Z,37.10
2023-05-05T11:36:15.818Z,37.10
2023-05-05T11:39:10.008Z,37.10
2023-05-05T11:41:43.394Z,37.00
2023-05-05T11:44:37.280Z,37.00
2023-05-05T11:47:10.801Z,36.90
2023-05-05T11:49:42.229Z,36.90
2023-05-05T11:52:17.192Z,36.80
2023-05-05T11:54:51.311Z,36.80
2023-05-05T11:57:28.807Z,36.80
2023-05-05T12:00:04.185Z,36.80
2023-05-05T12:02:35.486Z,36.60
2023-05-05T12:05:07.164Z,36.60
2023-05-05T12:07:38.415Z,36.60
2023-05-05T12:10:11.755Z,36.50
2023-05-05T12:12:43.494Z,36.50
2023-05-05T12:15:14.894Z,36.50
2023-05-05T12:17:47.825Z,36.40
2023-05-05T12:20:27.994Z,36.40
2023-05-05T12:25:51.102Z,36.40
2023-05-05T12:28:24.776Z,36.30
2023-05-05T12:31:01.194Z,36.30
2023-05-05T12:33:32.748Z,36.30
2023-05-05T12:36:04.082Z,36.20
2023-05-05T12:38:35.258Z,36.20
2023-05-05T12:41:06.884Z,36.20
2023-05-05T12:43:42.173Z,36.10
2023-05-05T12:46:17.021Z,36.20
2023-05-05T12:48:49.525Z,36.10
2023-05-05T12:51:27.801Z,36.10
2023-05-05T12:54:10.946Z,36.10
2023-05-05T12:56:51.520Z,36.10
2023-05-05T12:59:27.164Z,36.10
2023-05-05T13:01:59.964Z,36.10
2023-05-05T13:04:34.778Z,36.10
2023-05-05T13:07:21.586Z,36.10
2023-05-05T13:09:53.393Z,36.10
2023-05-05T13:12:25.089Z,36.00
2023-05-05T13:14:56.352Z,36.10
2023-05-05T13:17:27.553Z,36.10
2023-05-05T13:20:01.606Z,36.00
2023-05-05T13:22:33.920Z,36.00
2023-05-05T13:25:05.157Z,36.00
2023-05-05T13:30:16.598Z,36.00
2023-05-05T13:32:51.193Z,36.00
2023-05-05T13:36:07.440Z,36.00
2023-05-05T13:38:05.125Z,36.00
2023-05-05T13:40:36.652Z,36.00
2023-05-05T13:43:07.842Z,35.90
2023-05-05T13:45:41.243Z,35.90
2023-05-05T13:48:22.467Z,35.90
2023-05-05T13:50:56.270Z,35.90
2023-05-05T13:53:37.801Z,35.90
2023-05-05T13:56:09.448Z,35.80
2023-05-05T13:58:47.524Z,35.80
2023-05-05T14:01:19.001Z,35.80
2023-05-05T14:03:54.440Z,35.80
2023-05-05T14:06:25.707Z,35.80
2023-05-05T14:09:00.339Z,35.70
2023-05-05T14:11:32.864Z,35.70
2023-05-05T14:14:06.332Z,35.70
2023-05-05T14:16:36.573Z,35.70
2023-05-05T14:19:07.873Z,35.70
2023-05-05T14:21:38.985Z,35.60
2023-05-05T14:24:10.753Z,35.70
2023-05-05T14:26:47.338Z,35.60
2023-05-05T14:29:20.354Z,35.50
2023-05-05T14:31:52.533Z,35.50
2023-05-05T14:34:23.852Z,35.50
2023-05-05T14:36:55.023Z,35.40
2023-05-05T14:39:26.300Z,35.40
2023-05-05T14:41:57.634Z,35.30
2023-05-05T14:44:34.145Z,35.30
2023-05-05T14:47:10.159Z,35.30
2023-05-05T14:49:42.728Z,35.30
2023-05-05T14:52:13.427Z,35.20
2023-05-05T14:54:47.024Z,35.20
2023-05-05T14:57:21.992Z,35.10
2023-05-05T14:59:57.977Z,35.10
2023-05-05T15:02:33.816Z,35.10
2023-05-05T15:05:05.311Z,35.00
2023-05-05T15:07:41.165Z,34.90
2023-05-05T15:10:25.992Z,34.90
2023-05-05T15:12:57.235Z,34.90
2023-05-05T15:15:41.989Z,34.90
2023-05-05T15:24:33.029Z,34.80
2023-05-05T15:24:50.966Z,34.80
2023-05-05T15:27:04.162Z,34.80
2023-05-05T15:29:50.432Z,34.80
2023-05-05T15:32:24.577Z,34.80
2023-05-05T15:35:45.865Z,34.80
2023-05-05T15:38:25.655Z,34.70
2023-05-05T15:40:56.234Z,34.70
2023-05-05T15:43:52.530Z,34.70
2023-05-05T15:46:19.096Z,34.70
2023-05-05T15:48:50.303Z,34.70
2023-05-05T15:51:31.882Z,34.70
2023-05-05T15:54:02.996Z,34.60
2023-05-05T15:56:42.874Z,34.60
2023-05-05T15:59:13.545Z,34.60
2023-05-05T16:01:47.625Z,34.60
2023-05-05T16:04:22.956Z,34.50
2023-05-05T16:07:09.022Z,34.50
2023-05-05T16:09:35.662Z,34.50
2023-05-05T16:12:09.473Z,34.50
2023-05-05T16:14:41.233Z,34.40
2023-05-05T16:17:13.687Z,34.40
2023-05-05T16:22:33.938Z,34.40
2023-05-05T16:25:09.901Z,34.40
2023-05-05T16:27:55.280Z,34.40
2023-05-05T16:30:16.511Z,34.40
2023-05-05T16:32:51.284Z,34.40
2023-05-05T16:35:30.678Z,34.30
2023-05-05T16:38:04.231Z,34.30
2023-05-05T16:40:35.330Z,34.30
2023-05-05T16:43:10.416Z,34.30
2023-05-05T16:45:42.812Z,34.30
2023-05-05T16:48:14.979Z,34.20
2023-05-05T16:50:50.584Z,34.20
2023-05-05T16:53:22.347Z,34.20
2023-05-05T16:56:02.102Z,34.20
2023-05-05T17:01:23.517Z,34.10
2023-05-05T17:04:21.250Z,34.10
2023-05-05T17:06:55.533Z,34.10
2023-05-05T17:09:30.173Z,34.10
2023-05-05T17:12:05.918Z,34.10
2023-05-05T17:20:31.254Z,34.00
2023-05-05T17:23:05.943Z,34.00
2023-05-05T17:25:40.426Z,34.00
2023-05-05T17:28:12.718Z,34.00
2023-05-05T17:30:44.055Z,34.00
2023-05-05T17:33:16.443Z,33.90
2023-05-05T17:35:53.585Z,33.90
2023-05-05T17:38:29.096Z,33.90
2023-05-05T17:41:04.718Z,33.90
2023-05-05T17:43:54.562Z,33.90
2023-05-05T17:50:55.430Z,33.90
2023-05-05T17:52:24.542Z,33.90
2023-05-05T17:55:13.651Z,33.90
2023-05-05T17:57:44.922Z,33.90
2023-05-05T18:00:16.965Z,33.80
2023-05-05T18:02:53.350Z,33.80
2023-05-05T18:05:24.509Z,33.80
2023-05-05T18:07:55.639Z,33.70
2023-05-05T18:10:31.213Z,33.70
2023-05-05T18:13:06.466Z,33.70
2023-05-05T18:15:50.121Z,33.60
2023-05-05T18:18:22.906Z,33.60
2023-05-05T18:20:57.859Z,33.60
2023-05-05T18:23:29.382Z,33.60
2023-05-05T18:26:01.749Z,33.60
2023-05-05T18:28:32.863Z,33.50
2023-05-05T18:31:10.741Z,33.50
2023-05-05T18:33:47.676Z,33.50
2023-05-05T18:36:18.847Z,33.50
2023-05-05T18:38:50.114Z,33.50
2023-05-05T18:41:22.697Z,33.40
2023-05-05T18:43:55.094Z,33.40
2023-05-05T18:46:30.588Z,33.40
2023-05-05T18:49:01.539Z,33.40
2023-05-05T18:51:39.489Z,33.40
2023-05-05T18:54:16.885Z,33.40
2023-05-05T18:56:50.989Z,33.40
2023-05-05T18:59:22.111Z,33.40
2023-05-05T19:04:44.230Z,33.30
2023-05-05T19:07:27.491Z,33.30
2023-05-05T19:09:47.818Z,33.30
2023-05-05T19:12:18.930Z,33.30
2023-05-05T19:14:50.064Z,33.30
2023-05-05T19:17:21.170Z,33.20
2023-05-05T19:19:52.364Z,33.20
2023-05-05T19:22:24.708Z,33.20
2023-05-05T19:24:55.981Z,33.10
2023-05-05T19:27:27.154Z,33.10
2023-05-05T19:29:58.351Z,33.00
2023-05-05T19:32:29.449Z,33.00
2023-05-05T19:35:00.611Z,33.00
2023-05-05T19:37:31.815Z,33.00
2023-05-05T19:40:02.952Z,33.00
2023-05-05T19:42:34.128Z,33.00
2023-05-05T19:45:05.463Z,33.00
2023-05-05T19:47:37.512Z,33.00
2023-05-05T19:50:09.955Z,33.00
2023-05-05T19:52:42.552Z,33.00
2023-05-05T19:55:14.217Z,33.00
2023-05-05T19:57:45.343Z,33.00
2023-05-05T20:00:17.150Z,33.00
2023-05-05T20:02:49.614Z,32.90
2023-05-05T20:05:21.378Z,33.00
2023-05-05T20:07:53.479Z,32.90
2023-05-05T20:10:25.197Z,32.80
2023-05-05T20:12:56.353Z,32.80
2023-05-05T20:15:27.664Z,32.80
2023-05-05T20:17:58.882Z,32.80
2023-05-05T20:20:30.138Z,32.80
2023-05-05T20:23:01.261Z,32.70
2023-05-05T20:25:32.360Z,32.70
2023-05-05T20:28:03.638Z,32.70
2023-05-05T20:30:34.716Z,32.70
2023-05-05T20:33:05.880Z,32.70
2023-05-05T20:35:37.029Z,32.70
2023-05-05T20:38:08.262Z,32.70
2023-05-05T20:40:39.829Z,32.70
2023-05-05T20:43:10.918Z,32.70
2023-05-05T20:45:42.657Z,32.60
2023-05-05T20:48:25.745Z,32.60
2023-05-05T20:50:56.953Z,32.60
2023-05-05T20:53:28.090Z,32.60
2023-05-05T20:55:59.196Z,32.50
2023-05-05T20:58:30.432Z,32.50
2023-05-05T21:01:01.636Z,32.50
2023-05-05T21:03:32.833Z,32.50
2023-05-05T21:06:05.134Z,32.50
2023-05-05T21:08:36.237Z,32.40
2023-05-05T21:11:11.564Z,32.40
2023-05-05T21:13:42.736Z,32.40
2023-05-05T21:16:14.969Z,32.40
2023-05-05T21:18:47.348Z,32.40
2023-05-05T21:21:18.480Z,32.40
2023-05-05T21:23:50.024Z,32.30
2023-05-05T21:26:21.105Z,32.30
2023-05-05T21:28:52.223Z,32.30
2023-05-05T21:31:23.832Z,32.30
2023-05-05T21:33:55.366Z,32.20
2023-05-05T21:36:26.471Z,32.30
2023-05-05T21:38:58.456Z,32.20
2023-05-05T21:41:29.965Z,32.20
2023-05-05T21:44:01.471Z,32.20
2023-05-05T21:46:32.630Z,32.10
2023-05-05T21:49:04.970Z,32.10
2023-05-05T21:51:36.074Z,32.10
2023-05-05T21:54:07.248Z,32.20
2023-05-05T21:56:39.074Z,32.20
2023-05-05T21:59:10.292Z,32.10
2023-05-05T22:01:41.517Z,32.10
2023-05-05T22:04:12.720Z,32.10
2023-05-05T22:06:44.420Z,32.20
2023-05-05T22:09:15.520Z,32.10
2023-05-05T22:11:46.655Z,32.10
2023-05-05T22:14:17.948Z,32.20
2023-05-05T22:16:49.164Z,32.10
2023-05-05T22:19:20.304Z,32.10
2023-05-05T22:21:51.394Z,32.10
2023-05-05T22:24:23.306Z,32.00
2023-05-05T22:26:55.205Z,32.00
2023-05-05T22:29:26.400Z,32.00
2023-05-05T22:31:58.856Z,31.90
2023-05-05T22:34:29.934Z,32.00
2023-05-05T22:37:01.037Z,31.90
2023-05-05T22:39:32.148Z,31.90
2023-05-05T22:42:03.245Z,31.90
2023-05-05T22:44:34.348Z,31.90
2023-05-05T22:47:05.726Z,31.90
2023-05-05T22:49:36.944Z,31.90
2023-05-05T22:52:08.802Z,31.90
2023-05-05T22:54:39.922Z,31.90
2023-05-05T22:57:11.054Z,31.80
2023-05-05T23:02:37.565Z,31.90
2023-05-05T23:05:09.599Z,31.80
2023-05-05T23:07:41.310Z,31.80
2023-05-05T23:10:12.916Z,31.80
2023-05-05T23:12:44.054Z,31.80
2023-05-05T23:15:15.329Z,31.80
2023-05-05T23:17:46.509Z,31.90
2023-05-05T23:20:17.761Z,31.80
2023-05-05T23:22:51.098Z,31.90
2023-05-05T23:25:22.238Z,31.80
2023-05-05T23:27:53.356Z,31.80
2023-05-05T23:30:24.633Z,31.70
2023-05-05T23:32:56.013Z,31.80
2023-05-05T23:35:27.451Z,31.80
2023-05-05T23:37:58.577Z,31.80
2023-05-05T23:40:32.514Z,31.80
2023-05-05T23:43:03.325Z,31.80
2023-05-05T23:45:34.443Z,31.80
2023-05-05T23:48:05.758Z,31.80
2023-05-05T23:50:36.875Z,31.80
2023-05-05T23:53:07.933Z,31.90
2023-05-05T23:55:39.133Z,31.80
